sensor_id;sensor_type;location;lat;lon;timestamp;P1;durP1;ratioP1;P2;durP2;ratioP2
70780;SDS011;59514;48.810;2.134;2023-04-02T00:07:40;2.40;;;2.20;;
70780;SDS011;59514;48.810;2.134;2023-04-02T00:10:24;4.35;;;2.42;;
70780;SDS011;59514;48.810;2.134;2023-04-02T00:13:03;2.65;;;2.25;;
70780;SDS011;59514;48.810;2.134;2023-04-02T00:15:42;2.53;;;2.10;;
70780;SDS011;59514;48.810;2.134;2023-04-02T00:18:12;3.20;;;2.58;;
70780;SDS011;59514;48.810;2.134;2023-04-02T00:20:40;5.45;;;2.40;;
70780;SDS011;59514;48.810;2.134;2023-04-02T00:23:10;2.72;;;2.30;;
70780;SDS011;59514;48.810;2.134;2023-04-02T00:25:37;4.03;;;2.22;;
70780;SDS011;59514;48.810;2.134;2023-04-02T00:28:17;3.13;;;2.40;;
70780;SDS011;59514;48.810;2.134;2023-04-02T00:30:45;2.60;;;2.03;;
70780;SDS011;59514;48.810;2.134;2023-04-02T00:33:16;2.85;;;2.55;;
70780;SDS011;59514;48.810;2.134;2023-04-02T00:38:15;2.38;;;2.15;;
70780;SDS011;59514;48.810;2.134;2023-04-02T00:40:44;3.00;;;2.50;;
70780;SDS011;59514;48.810;2.134;2023-04-02T00:43:10;2.85;;;2.33;;
70780;SDS011;59514;48.810;2.134;2023-04-02T00:45:40;3.72;;;2.65;;
70780;SDS011;59514;48.810;2.134;2023-04-02T00:51:08;4.95;;;2.40;;
70780;SDS011;59514;48.810;2.134;2023-04-02T00:56:04;4.68;;;2.65;;
70780;SDS011;59514;48.810;2.134;2023-04-02T00:58:41;3.20;;;2.28;;
70780;SDS011;59514;48.810;2.134;2023-04-02T01:01:17;3.08;;;2.78;;
70780;SDS011;59514;48.810;2.134;2023-04-02T01:03:51;3.83;;;2.55;;
70780;SDS011;59514;48.810;2.134;2023-04-02T01:06:28;3.33;;;2.47;;
70780;SDS011;59514;48.810;2.134;2023-04-02T01:29:17;4.03;;;2.22;;
70780;SDS011;59514;48.810;2.134;2023-04-02T01:31:56;2.70;;;2.05;;
70780;SDS011;59514;48.810;2.134;2023-04-02T01:34:26;3.35;;;2.15;;
70780;SDS011;59514;48.810;2.134;2023-04-02T01:39:26;3.22;;;2.40;;
70780;SDS011;59514;48.810;2.134;2023-04-02T01:42:00;3.42;;;2.22;;
70780;SDS011;59514;48.810;2.134;2023-04-02T01:44:38;2.45;;;2.20;;
70780;SDS011;59514;48.810;2.134;2023-04-02T01:47:11;2.97;;;2.22;;
70780;SDS011;59514;48.810;2.134;2023-04-02T01:49:38;2.47;;;2.28;;
70780;SDS011;59514;48.810;2.134;2023-04-02T01:52:06;3.10;;;2.35;;
70780;SDS011;59514;48.810;2.134;2023-04-02T01:54:32;3.08;;;2.10;;
70780;SDS011;59514;48.810;2.134;2023-04-02T01:57:01;2.60;;;2.40;;
70780;SDS011;59514;48.810;2.134;2023-04-02T01:59:27;3.13;;;2.47;;
70780;SDS011;59514;48.810;2.134;2023-04-02T02:04:27;2.63;;;2.25;;
70780;SDS011;59514;48.810;2.134;2023-04-02T02:06:53;4.13;;;2.50;;
70780;SDS011;59514;48.810;2.134;2023-04-02T02:09:23;3.30;;;2.50;;
70780;SDS011;59514;48.810;2.134;2023-04-02T02:11:51;2.97;;;2.20;;
70780;SDS011;59514;48.810;2.134;2023-04-02T02:14:23;2.45;;;2.17;;
70780;SDS011;59514;48.810;2.134;2023-04-02T02:16:51;4.70;;;2.40;;
70780;SDS011;59514;48.810;2.134;2023-04-02T02:19:22;3.15;;;2.10;;
70780;SDS011;59514;48.810;2.134;2023-04-02T02:21:53;3.80;;;2.38;;
70780;SDS011;59514;48.810;2.134;2023-04-02T02:26:49;2.53;;;2.33;;
70780;SDS011;59514;48.810;2.134;2023-04-02T02:29:23;3.97;;;2.13;;
70780;SDS011;59514;48.810;2.134;2023-04-02T02:31:52;3.33;;;2.10;;
70780;SDS011;59514;48.810;2.134;2023-04-02T02:34:21;2.28;;;1.50;;
70780;SDS011;59514;48.810;2.134;2023-04-02T02:36:54;2.00;;;1.80;;
70780;SDS011;59514;48.810;2.134;2023-04-02T02:39:24;2.28;;;1.60;;
70780;SDS011;59514;48.810;2.134;2023-04-02T02:41:53;1.60;;;1.50;;
70780;SDS011;59514;48.810;2.134;2023-04-02T02:44:42;1.98;;;1.40;;
70780;SDS011;59514;48.810;2.134;2023-04-02T02:47:12;2.25;;;1.20;;
70780;SDS011;59514;48.810;2.134;2023-04-02T02:49:42;1.58;;;1.20;;
70780;SDS011;59514;48.810;2.134;2023-04-02T02:52:14;1.00;;;0.95;;
70780;SDS011;59514;48.810;2.134;2023-04-02T02:54:44;1.55;;;0.90;;
70780;SDS011;59514;48.810;2.134;2023-04-02T02:57:15;1.27;;;1.10;;
70780;SDS011;59514;48.810;2.134;2023-04-02T02:59:44;1.10;;;0.88;;
70780;SDS011;59514;48.810;2.134;2023-04-02T03:02:10;1.45;;;1.00;;
70780;SDS011;59514;48.810;2.134;2023-04-02T03:04:37;1.23;;;0.60;;
70780;SDS011;59514;48.810;2.134;2023-04-02T03:07:02;1.80;;;0.88;;
70780;SDS011;59514;48.810;2.134;2023-04-02T03:17:31;0.98;;;0.75;;
70780;SDS011;59514;48.810;2.134;2023-04-02T03:20:03;0.80;;;0.65;;
70780;SDS011;59514;48.810;2.134;2023-04-02T03:22:33;2.00;;;0.60;;
70780;SDS011;59514;48.810;2.134;2023-04-02T03:27:48;0.93;;;0.60;;
70780;SDS011;59514;48.810;2.134;2023-04-02T03:33:30;0.80;;;0.68;;
70780;SDS011;59514;48.810;2.134;2023-04-02T03:35:59;0.60;;;0.60;;
70780;SDS011;59514;48.810;2.134;2023-04-02T03:38:51;0.80;;;0.63;;
70780;SDS011;59514;48.810;2.134;2023-04-02T03:44:04;0.70;;;0.70;;
70780;SDS011;59514;48.810;2.134;2023-04-02T03:46:40;0.80;;;0.80;;
70780;SDS011;59514;48.810;2.134;2023-04-02T03:49:11;0.80;;;0.80;;
70780;SDS011;59514;48.810;2.134;2023-04-02T03:51:46;1.27;;;0.80;;
70780;SDS011;59514;48.810;2.134;2023-04-02T03:54:19;1.25;;;1.10;;
70780;SDS011;59514;48.810;2.134;2023-04-02T03:56:46;1.15;;;1.05;;
70780;SDS011;59514;48.810;2.134;2023-04-02T03:59:19;1.10;;;1.00;;
70780;SDS011;59514;48.810;2.134;2023-04-02T04:01:54;1.23;;;1.10;;
70780;SDS011;59514;48.810;2.134;2023-04-02T04:04:26;1.08;;;1.05;;
70780;SDS011;59514;48.810;2.134;2023-04-02T04:06:55;2.22;;;1.23;;
70780;SDS011;59514;48.810;2.134;2023-04-02T04:09:24;1.80;;;1.10;;
70780;SDS011;59514;48.810;2.134;2023-04-02T04:12:01;1.65;;;1.55;;
70780;SDS011;59514;48.810;2.134;2023-04-02T04:14:39;1.42;;;1.33;;
70780;SDS011;59514;48.810;2.134;2023-04-02T04:17:17;1.27;;;1.17;;
70780;SDS011;59514;48.810;2.134;2023-04-02T04:20:16;1.45;;;1.30;;
70780;SDS011;59514;48.810;2.134;2023-04-02T04:22:46;1.30;;;1.20;;
70780;SDS011;59514;48.810;2.134;2023-04-02T04:25:26;1.45;;;1.35;;
70780;SDS011;59514;48.810;2.134;2023-04-02T04:33:26;3.17;;;2.40;;
70780;SDS011;59514;48.810;2.134;2023-04-02T04:35:58;4.28;;;2.58;;
70780;SDS011;59514;48.810;2.134;2023-04-02T04:38:35;3.58;;;2.25;;
70780;SDS011;59514;48.810;2.134;2023-04-02T04:41:09;4.50;;;3.05;;
70780;SDS011;59514;48.810;2.134;2023-04-02T04:43:45;4.43;;;2.90;;
70780;SDS011;59514;48.810;2.134;2023-04-02T04:46:37;5.05;;;3.05;;
70780;SDS011;59514;48.810;2.134;2023-04-02T04:49:13;5.82;;;2.97;;
70780;SDS011;59514;48.810;2.134;2023-04-02T04:51:50;6.22;;;3.45;;
70780;SDS011;59514;48.810;2.134;2023-04-02T04:54:17;7.20;;;3.58;;
70780;SDS011;59514;48.810;2.134;2023-04-02T04:56:45;4.47;;;3.33;;
70780;SDS011;59514;48.810;2.134;2023-04-02T05:01:45;5.00;;;3.42;;
70780;SDS011;59514;48.810;2.134;2023-04-02T05:04:19;6.07;;;3.53;;
70780;SDS011;59514;48.810;2.134;2023-04-02T05:06:56;6.38;;;3.88;;
70780;SDS011;59514;48.810;2.134;2023-04-02T05:12:25;8.05;;;4.00;;
70780;SDS011;59514;48.810;2.134;2023-04-02T05:17:32;7.03;;;4.05;;
70780;SDS011;59514;48.810;2.134;2023-04-02T05:23:14;7.80;;;4.15;;
70780;SDS011;59514;48.810;2.134;2023-04-02T05:25:50;4.88;;;3.42;;
70780;SDS011;59514;48.810;2.134;2023-04-02T05:28:25;7.00;;;3.70;;
70780;SDS011;59514;48.810;2.134;2023-04-02T05:31:23;7.00;;;4.00;;
70780;SDS011;59514;48.810;2.134;2023-04-02T05:33:51;11.15;;;4.32;;
70780;SDS011;59514;48.810;2.134;2023-04-02T05:36:20;7.20;;;3.58;;
70780;SDS011;59514;48.810;2.134;2023-04-02T05:38:48;6.70;;;3.97;;
70780;SDS011;59514;48.810;2.134;2023-04-02T05:46:54;6.72;;;3.70;;
70780;SDS011;59514;48.810;2.134;2023-04-02T05:49:24;7.28;;;3.42;;
70780;SDS011;59514;48.810;2.134;2023-04-02T05:51:53;5.45;;;3.67;;
70780;SDS011;59514;48.810;2.134;2023-04-02T05:54:25;6.05;;;3.38;;
70780;SDS011;59514;48.810;2.134;2023-04-02T05:56:59;6.50;;;3.42;;
70780;SDS011;59514;48.810;2.134;2023-04-02T05:59:28;7.47;;;4.65;;
70780;SDS011;59514;48.810;2.134;2023-04-02T06:07:14;4.63;;;3.03;;
70780;SDS011;59514;48.810;2.134;2023-04-02T06:09:45;5.45;;;3.30;;
70780;SDS011;59514;48.810;2.134;2023-04-02T06:15:00;4.47;;;3.63;;
70780;SDS011;59514;48.810;2.134;2023-04-02T06:17:25;5.53;;;3.47;;
70780;SDS011;59514;48.810;2.134;2023-04-02T06:19:51;7.97;;;3.38;;
70780;SDS011;59514;48.810;2.134;2023-04-02T06:22:32;5.68;;;3.25;;
70780;SDS011;59514;48.810;2.134;2023-04-02T06:25:02;5.75;;;3.45;;
70780;SDS011;59514;48.810;2.134;2023-04-02T06:27:33;7.78;;;3.70;;
70780;SDS011;59514;48.810;2.134;2023-04-02T06:29:59;5.50;;;3.90;;
70780;SDS011;59514;48.810;2.134;2023-04-02T06:32:29;3.22;;;2.92;;
70780;SDS011;59514;48.810;2.134;2023-04-02T06:34:55;5.13;;;3.67;;
70780;SDS011;59514;48.810;2.134;2023-04-02T06:37:29;5.90;;;3.50;;
70780;SDS011;59514;48.810;2.134;2023-04-02T06:39:58;6.03;;;3.85;;
70780;SDS011;59514;48.810;2.134;2023-04-02T06:42:26;4.97;;;3.47;;
70780;SDS011;59514;48.810;2.134;2023-04-02T06:44:55;5.88;;;4.13;;
70780;SDS011;59514;48.810;2.134;2023-04-02T06:52:47;6.03;;;3.55;;
70780;SDS011;59514;48.810;2.134;2023-04-02T06:57:44;5.77;;;3.63;;
70780;SDS011;59514;48.810;2.134;2023-04-02T07:00:17;5.10;;;3.65;;
70780;SDS011;59514;48.810;2.134;2023-04-02T07:02:49;5.97;;;3.72;;
70780;SDS011;59514;48.810;2.134;2023-04-02T07:05:17;6.78;;;3.97;;
70780;SDS011;59514;48.810;2.134;2023-04-02T07:07:42;7.00;;;3.55;;
70780;SDS011;59514;48.810;2.134;2023-04-02T07:10:08;6.07;;;3.60;;
70780;SDS011;59514;48.810;2.134;2023-04-02T07:12:34;5.10;;;3.20;;
70780;SDS011;59514;48.810;2.134;2023-04-02T07:14:59;4.22;;;3.30;;
70780;SDS011;59514;48.810;2.134;2023-04-02T07:17:25;3.65;;;2.88;;
70780;SDS011;59514;48.810;2.134;2023-04-02T07:19:50;5.38;;;3.60;;
70780;SDS011;59514;48.810;2.134;2023-04-02T07:22:16;3.35;;;3.05;;
70780;SDS011;59514;48.810;2.134;2023-04-02T07:24:43;4.78;;;2.95;;
70780;SDS011;59514;48.810;2.134;2023-04-02T07:27:10;5.10;;;2.95;;
70780;SDS011;59514;48.810;2.134;2023-04-02T07:29:36;5.95;;;3.30;;
70780;SDS011;59514;48.810;2.134;2023-04-02T07:32:06;7.00;;;3.22;;
70780;SDS011;59514;48.810;2.134;2023-04-02T07:34:33;7.25;;;2.95;;
70780;SDS011;59514;48.810;2.134;2023-04-02T07:36:58;6.03;;;3.33;;
70780;SDS011;59514;48.810;2.134;2023-04-02T07:39:24;6.07;;;3.58;;
70780;SDS011;59514;48.810;2.134;2023-04-02T07:41:56;5.55;;;3.55;;
70780;SDS011;59514;48.810;2.134;2023-04-02T07:44:23;4.32;;;3.30;;
70780;SDS011;59514;48.810;2.134;2023-04-02T07:46:48;5.80;;;3.20;;
70780;SDS011;59514;48.810;2.134;2023-04-02T07:49:14;7.25;;;3.17;;
70780;SDS011;59514;48.810;2.134;2023-04-02T07:51:40;3.67;;;3.33;;
70780;SDS011;59514;48.810;2.134;2023-04-02T07:54:05;4.45;;;3.22;;
70780;SDS011;59514;48.810;2.134;2023-04-02T07:56:34;5.97;;;3.53;;
70780;SDS011;59514;48.810;2.134;2023-04-02T07:59:00;5.53;;;3.88;;
70780;SDS011;59514;48.810;2.134;2023-04-02T08:01:26;4.65;;;3.42;;
70780;SDS011;59514;48.810;2.134;2023-04-02T08:03:53;5.15;;;3.35;;
70780;SDS011;59514;48.810;2.134;2023-04-02T08:06:21;5.97;;;3.38;;
70780;SDS011;59514;48.810;2.134;2023-04-02T08:08:48;4.45;;;3.47;;
70780;SDS011;59514;48.810;2.134;2023-04-02T08:11:14;5.00;;;3.42;;
70780;SDS011;59514;48.810;2.134;2023-04-02T08:13:39;7.53;;;3.00;;
70780;SDS011;59514;48.810;2.134;2023-04-02T08:16:05;5.07;;;3.72;;
70780;SDS011;59514;48.810;2.134;2023-04-02T08:18:31;3.85;;;3.35;;
70780;SDS011;59514;48.810;2.134;2023-04-02T08:20:57;7.35;;;3.72;;
70780;SDS011;59514;48.810;2.134;2023-04-02T08:23:23;5.15;;;3.90;;
70780;SDS011;59514;48.810;2.134;2023-04-02T08:25:49;6.20;;;3.70;;
70780;SDS011;59514;48.810;2.134;2023-04-02T08:28:15;5.43;;;4.00;;
70780;SDS011;59514;48.810;2.134;2023-04-02T08:30:40;3.97;;;3.50;;
70780;SDS011;59514;48.810;2.134;2023-04-02T08:33:06;4.65;;;3.58;;
70780;SDS011;59514;48.810;2.134;2023-04-02T08:35:32;5.35;;;3.88;;
70780;SDS011;59514;48.810;2.134;2023-04-02T08:37:57;6.55;;;4.00;;
70780;SDS011;59514;48.810;2.134;2023-04-02T08:40:24;7.60;;;4.05;;
70780;SDS011;59514;48.810;2.134;2023-04-02T08:43:00;7.05;;;3.40;;
70780;SDS011;59514;48.810;2.134;2023-04-02T08:45:35;5.65;;;3.35;;
70780;SDS011;59514;48.810;2.134;2023-04-02T08:48:11;4.78;;;3.33;;
70780;SDS011;59514;48.810;2.134;2023-04-02T08:50:40;6.72;;;3.17;;
70780;SDS011;59514;48.810;2.134;2023-04-02T08:53:17;4.75;;;3.65;;
70780;SDS011;59514;48.810;2.134;2023-04-02T08:58:19;4.47;;;3.10;;
70780;SDS011;59514;48.810;2.134;2023-04-02T09:00:49;5.63;;;3.33;;
70780;SDS011;59514;48.810;2.134;2023-04-02T09:03:19;4.65;;;3.60;;
70780;SDS011;59514;48.810;2.134;2023-04-02T09:05:51;5.57;;;3.05;;
70780;SDS011;59514;48.810;2.134;2023-04-02T09:08:21;5.45;;;3.13;;
70780;SDS011;59514;48.810;2.134;2023-04-02T09:13:24;4.10;;;2.72;;
70780;SDS011;59514;48.810;2.134;2023-04-02T09:15:54;4.53;;;3.05;;
70780;SDS011;59514;48.810;2.134;2023-04-02T09:18:40;5.68;;;3.42;;
70780;SDS011;59514;48.810;2.134;2023-04-02T09:23:42;4.38;;;3.25;;
70780;SDS011;59514;48.810;2.134;2023-04-02T09:26:18;4.85;;;3.08;;
70780;SDS011;59514;48.810;2.134;2023-04-02T09:28:51;5.32;;;3.30;;
70780;SDS011;59514;48.810;2.134;2023-04-02T09:31:25;5.18;;;3.28;;
70780;SDS011;59514;48.810;2.134;2023-04-02T09:34:00;6.90;;;3.67;;
70780;SDS011;59514;48.810;2.134;2023-04-02T09:38:59;7.13;;;4.03;;
70780;SDS011;59514;48.810;2.134;2023-04-02T09:41:30;4.88;;;3.38;;
70780;SDS011;59514;48.810;2.134;2023-04-02T09:46:48;5.90;;;4.00;;
70780;SDS011;59514;48.810;2.134;2023-04-02T09:51:42;7.10;;;3.92;;
70780;SDS011;59514;48.810;2.134;2023-04-02T09:54:14;5.50;;;4.57;;
70780;SDS011;59514;48.810;2.134;2023-04-02T09:57:00;8.35;;;4.28;;
70780;SDS011;59514;48.810;2.134;2023-04-02T09:59:26;8.38;;;3.90;;
70780;SDS011;59514;48.810;2.134;2023-04-02T10:07:09;7.47;;;4.40;;
70780;SDS011;59514;48.810;2.134;2023-04-02T10:12:50;8.57;;;3.80;;
70780;SDS011;59514;48.810;2.134;2023-04-02T10:15:28;11.23;;;4.80;;
70780;SDS011;59514;48.810;2.134;2023-04-02T10:18:09;7.22;;;3.95;;
70780;SDS011;59514;48.810;2.134;2023-04-02T10:20:41;5.10;;;4.20;;
70780;SDS011;59514;48.810;2.134;2023-04-02T10:23:14;7.38;;;3.83;;
70780;SDS011;59514;48.810;2.134;2023-04-02T10:28:17;9.73;;;4.50;;
70780;SDS011;59514;48.810;2.134;2023-04-02T10:31:11;5.68;;;4.60;;
70780;SDS011;59514;48.810;2.134;2023-04-02T10:33:45;8.02;;;4.60;;
70780;SDS011;59514;48.810;2.134;2023-04-02T10:38:41;8.88;;;5.72;;
70780;SDS011;59514;48.810;2.134;2023-04-02T11:05:20;9.10;;;4.13;;
70780;SDS011;59514;48.810;2.134;2023-04-02T11:07:53;6.93;;;4.28;;
70780;SDS011;59514;48.810;2.134;2023-04-02T11:10:22;5.68;;;3.97;;
70780;SDS011;59514;48.810;2.134;2023-04-02T11:15:47;12.13;;;4.85;;
70780;SDS011;59514;48.810;2.134;2023-04-02T11:18:26;7.05;;;3.95;;
70780;SDS011;59514;48.810;2.134;2023-04-02T11:20:57;6.97;;;3.60;;
70780;SDS011;59514;48.810;2.134;2023-04-02T11:23:31;7.78;;;3.88;;
70780;SDS011;59514;48.810;2.134;2023-04-02T11:26:31;9.52;;;4.55;;
70780;SDS011;59514;48.810;2.134;2023-04-02T11:29:03;10.30;;;3.95;;
70780;SDS011;59514;48.810;2.134;2023-04-02T11:31:30;8.48;;;3.53;;
70780;SDS011;59514;48.810;2.134;2023-04-02T11:33:56;6.75;;;3.75;;
70780;SDS011;59514;48.810;2.134;2023-04-02T11:39:43;7.93;;;3.53;;
70780;SDS011;59514;48.810;2.134;2023-04-02T11:44:43;7.28;;;3.28;;
70780;SDS011;59514;48.810;2.134;2023-04-02T11:47:27;7.80;;;3.38;;
70780;SDS011;59514;48.810;2.134;2023-04-02T11:52:23;7.88;;;4.22;;
70780;SDS011;59514;48.810;2.134;2023-04-02T12:03:36;8.65;;;3.38;;
70780;SDS011;59514;48.810;2.134;2023-04-02T12:11:38;10.95;;;3.40;;
70780;SDS011;59514;48.810;2.134;2023-04-02T12:16:54;7.93;;;3.60;;
70780;SDS011;59514;48.810;2.134;2023-04-02T12:19:22;8.60;;;3.15;;
70780;SDS011;59514;48.810;2.134;2023-04-02T12:21:49;9.15;;;3.45;;
70780;SDS011;59514;48.810;2.134;2023-04-02T12:24:18;7.88;;;3.60;;
70780;SDS011;59514;48.810;2.134;2023-04-02T12:26:46;10.68;;;3.95;;
70780;SDS011;59514;48.810;2.134;2023-04-02T12:29:15;8.35;;;3.90;;
70780;SDS011;59514;48.810;2.134;2023-04-02T12:31:49;13.40;;;7.65;;
70780;SDS011;59514;48.810;2.134;2023-04-02T12:34:16;9.40;;;5.22;;
70780;SDS011;59514;48.810;2.134;2023-04-02T12:36:53;8.90;;;4.60;;
70780;SDS011;59514;48.810;2.134;2023-04-02T12:39:29;8.48;;;4.18;;
70780;SDS011;59514;48.810;2.134;2023-04-02T12:41:56;11.77;;;5.05;;
70780;SDS011;59514;48.810;2.134;2023-04-02T12:44:23;11.52;;;4.35;;
70780;SDS011;59514;48.810;2.134;2023-04-02T12:46:53;9.38;;;3.40;;
70780;SDS011;59514;48.810;2.134;2023-04-02T12:49:30;8.70;;;3.95;;
70780;SDS011;59514;48.810;2.134;2023-04-02T12:52:03;8.85;;;4.28;;
70780;SDS011;59514;48.810;2.134;2023-04-02T12:55:21;8.80;;;3.72;;
70780;SDS011;59514;48.810;2.134;2023-04-02T12:59:56;7.97;;;4.17;;
70780;SDS011;59514;48.810;2.134;2023-04-02T13:02:49;8.70;;;4.40;;
70780;SDS011;59514;48.810;2.134;2023-04-02T13:08:00;10.02;;;4.47;;
70780;SDS011;59514;48.810;2.134;2023-04-02T13:10:26;10.80;;;4.30;;
70780;SDS011;59514;48.810;2.134;2023-04-02T13:12:55;9.10;;;4.32;;
70780;SDS011;59514;48.810;2.134;2023-04-02T13:15:24;10.65;;;4.78;;
70780;SDS011;59514;48.810;2.134;2023-04-02T13:18:12;12.20;;;5.38;;
70780;SDS011;59514;48.810;2.134;2023-04-02T13:20:59;12.40;;;4.47;;
70780;SDS011;59514;48.810;2.134;2023-04-02T13:25:55;9.02;;;4.15;;
70780;SDS011;59514;48.810;2.134;2023-04-02T13:28:23;13.52;;;4.53;;
70780;SDS011;59514;48.810;2.134;2023-04-02T13:30:48;11.55;;;5.10;;
70780;SDS011;59514;48.810;2.134;2023-04-02T13:33:14;10.18;;;4.38;;
70780;SDS011;59514;48.810;2.134;2023-04-02T13:35:40;7.63;;;4.38;;
70780;SDS011;59514;48.810;2.134;2023-04-02T13:38:06;11.18;;;4.57;;
70780;SDS011;59514;48.810;2.134;2023-04-02T13:40:32;6.55;;;4.43;;
70780;SDS011;59514;48.810;2.134;2023-04-02T13:43:00;12.13;;;4.85;;
70780;SDS011;59514;48.810;2.134;2023-04-02T13:45:27;8.07;;;4.07;;
70780;SDS011;59514;48.810;2.134;2023-04-02T13:47:56;9.30;;;4.53;;
70780;SDS011;59514;48.810;2.134;2023-04-02T13:50:25;8.45;;;4.68;;
70780;SDS011;59514;48.810;2.134;2023-04-02T13:52:52;6.45;;;4.13;;
70780;SDS011;59514;48.810;2.134;2023-04-02T13:55:21;8.68;;;4.60;;
70780;SDS011;59514;48.810;2.134;2023-04-02T13:57:49;9.85;;;4.72;;
70780;SDS011;59514;48.810;2.134;2023-04-02T14:00:15;8.10;;;4.43;;
70780;SDS011;59514;48.810;2.134;2023-04-02T14:02:42;4.03;;;3.50;;
70780;SDS011;59514;48.810;2.134;2023-04-02T14:08:09;6.55;;;4.35;;
70780;SDS011;59514;48.810;2.134;2023-04-02T14:13:35;9.15;;;4.60;;
70780;SDS011;59514;48.810;2.134;2023-04-02T14:31:52;6.38;;;4.00;;
70780;SDS011;59514;48.810;2.134;2023-04-02T14:34:37;6.15;;;3.90;;
70780;SDS011;59514;48.810;2.134;2023-04-02T14:42:15;6.55;;;3.75;;
70780;SDS011;59514;48.810;2.134;2023-04-02T14:44:48;6.07;;;3.92;;
70780;SDS011;59514;48.810;2.134;2023-04-02T14:47:21;5.90;;;4.07;;
70780;SDS011;59514;48.810;2.134;2023-04-02T14:49:53;4.40;;;2.88;;
70780;SDS011;59514;48.810;2.134;2023-04-02T14:52:27;7.75;;;3.97;;
70780;SDS011;59514;48.810;2.134;2023-04-02T14:55:09;5.50;;;3.00;;
70780;SDS011;59514;48.810;2.134;2023-04-02T14:57:44;5.40;;;3.25;;
70780;SDS011;59514;48.810;2.134;2023-04-02T15:02:48;6.70;;;3.30;;
70780;SDS011;59514;48.810;2.134;2023-04-02T15:05:32;5.60;;;3.45;;
70780;SDS011;59514;48.810;2.134;2023-04-02T15:08:26;5.50;;;3.28;;
70780;SDS011;59514;48.810;2.134;2023-04-02T15:16:29;12.32;;;3.90;;
70780;SDS011;59514;48.810;2.134;2023-04-02T15:18:59;5.72;;;2.83;;
70780;SDS011;59514;48.810;2.134;2023-04-02T15:21:44;7.32;;;3.40;;
70780;SDS011;59514;48.810;2.134;2023-04-02T15:30:32;5.22;;;3.20;;
70780;SDS011;59514;48.810;2.134;2023-04-02T15:41:34;4.72;;;3.28;;
70780;SDS011;59514;48.810;2.134;2023-04-02T15:44:14;5.75;;;3.72;;
70780;SDS011;59514;48.810;2.134;2023-04-02T15:58:48;4.53;;;3.70;;
70780;SDS011;59514;48.810;2.134;2023-04-02T16:12:01;6.13;;;3.90;;
70780;SDS011;59514;48.810;2.134;2023-04-02T16:14:37;4.63;;;4.03;;
70780;SDS011;59514;48.810;2.134;2023-04-02T16:17:07;5.85;;;4.25;;
70780;SDS011;59514;48.810;2.134;2023-04-02T16:19:40;5.30;;;4.13;;
70780;SDS011;59514;48.810;2.134;2023-04-02T16:22:20;5.07;;;4.53;;
70780;SDS011;59514;48.810;2.134;2023-04-02T16:24:56;7.57;;;4.45;;
70780;SDS011;59514;48.810;2.134;2023-04-02T16:27:30;5.53;;;4.10;;
70780;SDS011;59514;48.810;2.134;2023-04-02T16:38:48;5.75;;;4.75;;
70780;SDS011;59514;48.810;2.134;2023-04-02T16:49:42;6.03;;;5.40;;
70780;SDS011;59514;48.810;2.134;2023-04-02T17:00:16;10.13;;;7.03;;
70780;SDS011;59514;48.810;2.134;2023-04-02T17:05:30;7.78;;;6.70;;
70780;SDS011;59514;48.810;2.134;2023-04-02T17:10:55;8.35;;;7.28;;
70780;SDS011;59514;48.810;2.134;2023-04-02T17:13:26;14.57;;;7.82;;
70780;SDS011;59514;48.810;2.134;2023-04-02T17:16:26;9.98;;;7.32;;
70780;SDS011;59514;48.810;2.134;2023-04-02T17:18:59;10.27;;;7.50;;
70780;SDS011;59514;48.810;2.134;2023-04-02T17:21:26;9.05;;;8.05;;
70780;SDS011;59514;48.810;2.134;2023-04-02T17:23:53;10.38;;;7.85;;
70780;SDS011;59514;48.810;2.134;2023-04-02T17:26:21;8.75;;;7.38;;
70780;SDS011;59514;48.810;2.134;2023-04-02T17:28:51;8.85;;;7.55;;
70780;SDS011;59514;48.810;2.134;2023-04-02T17:31:21;8.10;;;7.30;;
70780;SDS011;59514;48.810;2.134;2023-04-02T17:33:47;8.85;;;6.75;;
70780;SDS011;59514;48.810;2.134;2023-04-02T17:42:16;7.35;;;6.05;;
70780;SDS011;59514;48.810;2.134;2023-04-02T17:45:10;7.55;;;6.85;;
70780;SDS011;59514;48.810;2.134;2023-04-02T17:47:57;6.78;;;6.18;;
70780;SDS011;59514;48.810;2.134;2023-04-02T17:50:43;8.13;;;7.25;;
